createdAt,value
2022-07-27T00:01:27.657Z,18.32
2022-07-27T00:05:24.697Z,18.27
2022-07-27T00:09:22.487Z,18.04
2022-07-27T00:13:19.966Z,18.22
2022-07-27T00:17:23.194Z,18.09
2022-07-27T00:21:20.195Z,17.89
2022-07-27T00:25:17.759Z,17.84
2022-07-27T00:29:15.161Z,17.72
2022-07-27T00:33:16.836Z,17.79
2022-07-27T00:37:14.404Z,18.04
2022-07-27T00:41:11.388Z,18.13
2022-07-27T00:45:09.638Z,18.11
2022-07-27T00:49:09.678Z,17.97
2022-07-27T00:53:09.634Z,17.96
2022-07-27T00:57:13.159Z,17.90
2022-07-27T01:01:10.506Z,17.82
2022-07-27T01:05:07.889Z,17.60
2022-07-27T01:09:28.856Z,17.52
2022-07-27T01:13:27.086Z,17.46
2022-07-27T01:17:30.770Z,17.58
2022-07-27T01:21:27.824Z,17.22
2022-07-27T01:25:31.367Z,17.35
2022-07-27T01:29:31.291Z,17.38
2022-07-27T01:33:28.300Z,17.28
2022-07-27T01:38:06.847Z,17.19
2022-07-27T01:42:04.344Z,17.10
2022-07-27T01:46:01.773Z,16.51
2022-07-27T01:49:58.770Z,16.90
2022-07-27T01:53:56.023Z,16.68
2022-07-27T01:57:53.068Z,16.90
2022-07-27T02:01:50.423Z,16.45
2022-07-27T02:05:47.620Z,16.47
2022-07-27T02:09:46.177Z,16.64
2022-07-27T02:13:50.094Z,16.58
2022-07-27T02:17:48.900Z,16.64
2022-07-27T02:21:47.257Z,16.75
2022-07-27T02:25:44.780Z,16.47
2022-07-27T02:29:41.949Z,16.49
2022-07-27T02:33:39.030Z,16.44
2022-07-27T02:37:36.048Z,16.56
2022-07-27T02:41:34.027Z,16.51
2022-07-27T02:45:31.351Z,16.41
2022-07-27T02:49:28.520Z,16.27
2022-07-27T02:53:25.562Z,16.23
2022-07-27T02:57:22.533Z,16.10
2022-07-27T03:01:19.552Z,16.41
2022-07-27T03:05:17.573Z,16.17
2022-07-27T03:09:14.954Z,16.16
2022-07-27T03:13:12.313Z,16.11
2022-07-27T03:17:10.229Z,16.04
2022-07-27T03:21:08.236Z,15.77
2022-07-27T03:25:06.256Z,16.09
2022-07-27T03:29:03.257Z,15.86
2022-07-27T03:33:02.573Z,15.83
2022-07-27T03:36:59.694Z,16.11
2022-07-27T03:40:56.895Z,16.06
2022-07-27T03:44:53.940Z,15.96
2022-07-27T03:48:50.960Z,16.11
2022-07-27T03:52:47.931Z,16.11
2022-07-27T03:56:45.555Z,16.10
2022-07-27T04:00:43.662Z,16.09
2022-07-27T04:04:40.725Z,16.07
2022-07-27T04:08:37.732Z,16.11
2022-07-27T04:12:39.614Z,16.29
2022-07-27T04:16:38.827Z,16.27
2022-07-27T04:20:35.971Z,16.56
2022-07-27T04:24:33.102Z,16.69
2022-07-27T04:28:30.094Z,17.04
2022-07-27T04:32:27.100Z,17.14
2022-07-27T04:36:24.208Z,17.04
2022-07-27T04:40:21.293Z,17.22
2022-07-27T04:44:18.246Z,17.18
2022-07-27T04:48:15.239Z,17.30
2022-07-27T04:52:16.288Z,17.18
2022-07-27T04:56:13.700Z,17.16
2022-07-27T05:00:12.420Z,17.25
2022-07-27T05:04:09.543Z,17.37
2022-07-27T05:08:06.616Z,17.63
2022-07-27T05:12:04.110Z,17.59
2022-07-27T05:16:01.177Z,18.19
2022-07-27T05:19:58.204Z,18.32
2022-07-27T05:23:55.773Z,18.81
2022-07-27T05:27:54.980Z,19.12
2022-07-27T05:31:52.146Z,19.11
2022-07-27T05:35:49.328Z,18.87
2022-07-27T05:39:46.376Z,19.39
2022-07-27T05:43:43.616Z,19.91
2022-07-27T05:47:41.211Z,20.27
2022-07-27T05:51:38.588Z,20.56
2022-07-27T05:55:35.591Z,20.77
2022-07-27T05:59:32.990Z,21.18
2022-07-27T06:03:30.253Z,21.55
2022-07-27T06:07:49.666Z,21.48
2022-07-27T06:11:47.016Z,21.86
2022-07-27T06:15:44.014Z,21.86
2022-07-27T06:19:41.083Z,22.07
2022-07-27T06:23:38.210Z,22.07
2022-07-27T06:27:37.954Z,22.23
2022-07-27T06:31:35.803Z,22.57
2022-07-27T06:35:33.181Z,22.69
2022-07-27T06:39:31.204Z,22.73
2022-07-27T06:43:32.771Z,22.80
2022-07-27T06:47:29.759Z,22.84
2022-07-27T06:51:26.780Z,23.21
2022-07-27T06:55:23.946Z,23.36
2022-07-27T06:59:20.915Z,23.96
2022-07-27T07:03:18.693Z,24.17
2022-07-27T07:07:15.812Z,24.43
2022-07-27T07:11:14.108Z,24.60
2022-07-27T07:15:13.045Z,24.94
2022-07-27T07:19:10.897Z,25.45
2022-07-27T07:23:09.823Z,25.36
2022-07-27T07:27:06.977Z,25.57
2022-07-27T07:31:04.091Z,25.53
2022-07-27T07:35:03.740Z,25.62
2022-07-27T07:39:01.060Z,25.97
2022-07-27T07:43:02.606Z,25.69
2022-07-27T07:47:00.487Z,25.41
2022-07-27T07:50:57.574Z,25.61
2022-07-27T07:54:54.542Z,25.71
2022-07-27T07:58:52.224Z,26.08
2022-07-27T08:02:55.153Z,26.62
2022-07-27T08:06:52.389Z,27.28
2022-07-27T08:10:49.470Z,27.87
2022-07-27T08:14:46.483Z,28.25
2022-07-27T08:18:43.834Z,28.73
2022-07-27T08:22:41.910Z,28.97
2022-07-27T08:26:39.022Z,29.69
2022-07-27T08:30:36.405Z,29.92
2022-07-27T08:34:33.928Z,29.94
2022-07-27T08:38:30.970Z,30.60
2022-07-27T08:42:28.118Z,28.79
2022-07-27T08:46:27.126Z,29.76
2022-07-27T08:50:30.471Z,31.59
2022-07-27T08:54:28.533Z,31.88
2022-07-27T08:58:26.383Z,31.89
2022-07-27T09:02:23.895Z,32.72
2022-07-27T09:06:53.256Z,32.74
2022-07-27T09:10:55.440Z,33.61
2022-07-27T09:15:05.918Z,34.32
2022-07-27T09:19:09.769Z,35.06
2022-07-27T09:23:07.053Z,36.29
2022-07-27T09:27:05.856Z,36.88
2022-07-27T09:31:12.987Z,34.64
2022-07-27T09:35:36.659Z,31.75
2022-07-27T09:39:34.146Z,31.86
2022-07-27T09:47:53.021Z,30.41
2022-07-27T09:51:59.889Z,29.26
2022-07-27T09:56:06.344Z,28.88
2022-07-27T10:00:13.749Z,28.33
2022-07-27T10:04:11.386Z,27.07
2022-07-27T10:08:08.980Z,25.71
2022-07-27T10:12:06.456Z,26.43
2022-07-27T10:16:06.047Z,28.30
2022-07-27T10:20:09.014Z,30.17
2022-07-27T10:24:09.903Z,30.53
2022-07-27T10:28:18.839Z,31.06
2022-07-27T10:32:34.287Z,30.39
2022-07-27T10:36:31.180Z,29.92
2022-07-27T10:40:37.088Z,29.65
2022-07-27T10:44:34.076Z,30.02
2022-07-27T10:48:47.880Z,30.95
2022-07-27T10:52:50.911Z,31.98
2022-07-27T10:56:50.779Z,31.05
2022-07-27T11:00:54.532Z,29.94
2022-07-27T11:04:53.444Z,28.69
2022-07-27T11:09:27.216Z,28.08
2022-07-27T11:13:13.267Z,26.72
2022-07-27T11:17:48.712Z,26.52
2022-07-27T11:21:35.286Z,27.73
2022-07-27T11:25:32.962Z,30.48
2022-07-27T11:29:40.065Z,34.05
2022-07-27T11:33:57.064Z,35.59
2022-07-27T11:38:07.765Z,36.18
2022-07-27T11:42:08.786Z,36.47
2022-07-27T11:46:18.124Z,37.20
2022-07-27T11:50:15.716Z,35.64
2022-07-27T11:54:29.380Z,35.24
2022-07-27T11:58:26.388Z,35.99
2022-07-27T12:02:25.426Z,34.54
2022-07-27T12:06:22.548Z,32.72
2022-07-27T12:10:19.530Z,31.24
2022-07-27T12:14:18.144Z,29.94
2022-07-27T12:18:15.184Z,30.63
2022-07-27T12:22:12.245Z,31.95
2022-07-27T12:26:25.394Z,31.36
2022-07-27T12:30:41.514Z,31.28
2022-07-27T12:34:38.550Z,31.38
2022-07-27T12:38:44.805Z,31.01
2022-07-27T12:42:41.789Z,31.01
2022-07-27T12:46:55.785Z,30.93
2022-07-27T12:51:06.531Z,31.05
2022-07-27T12:55:05.984Z,30.78
2022-07-27T12:59:05.167Z,31.68
2022-07-27T13:03:04.413Z,33.28
2022-07-27T13:07:01.449Z,32.62
2022-07-27T13:11:00.949Z,31.61
2022-07-27T13:14:58.016Z,30.50
2022-07-27T13:18:55.124Z,30.18
2022-07-27T13:22:52.651Z,29.92
2022-07-27T13:26:49.638Z,31.11
2022-07-27T13:30:46.730Z,32.69
2022-07-27T13:34:43.846Z,34.19
2022-07-27T13:38:40.854Z,34.02
2022-07-27T13:42:38.174Z,33.43
2022-07-27T13:46:36.473Z,32.29
2022-07-27T13:50:33.473Z,31.47
2022-07-27T13:54:30.593Z,30.75
2022-07-27T13:58:27.565Z,32.06
2022-07-27T14:02:25.233Z,33.36
2022-07-27T14:06:23.064Z,32.99
2022-07-27T14:10:54.136Z,31.97
2022-07-27T14:14:51.238Z,31.50
2022-07-27T14:18:48.778Z,31.89
2022-07-27T14:22:45.825Z,32.53
2022-07-27T14:26:42.795Z,32.82
2022-07-27T14:30:39.855Z,31.98
2022-07-27T14:34:37.684Z,31.58
2022-07-27T14:38:36.749Z,31.44
2022-07-27T14:42:33.768Z,31.02
2022-07-27T14:46:30.825Z,32.12
2022-07-27T14:50:28.217Z,33.54
2022-07-27T14:54:25.753Z,33.67
2022-07-27T14:58:23.066Z,34.33
2022-07-27T15:02:20.817Z,35.52
2022-07-27T15:06:17.944Z,34.35
2022-07-27T15:10:15.022Z,34.75
2022-07-27T15:14:12.078Z,35.34
2022-07-27T15:18:09.146Z,35.74
2022-07-27T15:22:06.123Z,36.60
2022-07-27T15:26:03.119Z,35.06
2022-07-27T15:30:00.108Z,33.56
2022-07-27T15:33:57.228Z,34.29
2022-07-27T15:37:55.046Z,35.05
2022-07-27T15:41:52.211Z,35.86
2022-07-27T15:45:50.977Z,36.19
2022-07-27T15:49:48.079Z,35.05
2022-07-27T15:53:45.313Z,33.73
2022-07-27T15:57:45.071Z,33.51
2022-07-27T16:01:43.085Z,33.66
2022-07-27T16:05:42.278Z,34.59
2022-07-27T16:09:39.236Z,34.07
2022-07-27T16:13:37.046Z,32.16
2022-07-27T16:17:34.087Z,31.79
2022-07-27T16:21:31.233Z,31.10
2022-07-27T16:26:08.268Z,30.61
2022-07-27T16:30:06.242Z,31.49
2022-07-27T16:34:03.252Z,31.22
2022-07-27T16:38:00.220Z,30.21
2022-07-27T16:41:58.413Z,30.24
2022-07-27T16:45:57.366Z,30.80
2022-07-27T16:49:54.489Z,31.27
2022-07-27T16:53:51.587Z,31.44
2022-07-27T16:57:48.673Z,31.45
2022-07-27T17:01:45.681Z,31.84
2022-07-27T17:05:43.022Z,33.07
2022-07-27T17:09:40.602Z,32.99
2022-07-27T17:13:39.039Z,33.51
2022-07-27T17:17:43.815Z,33.95
2022-07-27T17:21:42.032Z,34.02
2022-07-27T17:25:39.065Z,34.07
2022-07-27T17:29:36.109Z,33.33
2022-07-27T17:33:33.198Z,32.63
2022-07-27T17:37:49.301Z,31.91
2022-07-27T17:41:47.155Z,31.42
2022-07-27T17:45:44.157Z,31.08
2022-07-27T17:49:41.115Z,30.66
2022-07-27T17:53:38.646Z,30.17
2022-07-27T17:57:35.597Z,29.48
2022-07-27T18:01:46.875Z,28.52
2022-07-27T18:05:45.650Z,28.16
2022-07-27T18:09:42.733Z,27.30
2022-07-27T18:13:40.535Z,27.09
2022-07-27T18:17:39.246Z,27.00
2022-07-27T18:21:37.236Z,26.29
2022-07-27T18:25:36.430Z,25.87
2022-07-27T18:29:33.399Z,25.16
2022-07-27T18:33:36.294Z,25.07
2022-07-27T18:37:33.953Z,24.66
2022-07-27T18:41:32.664Z,24.48
2022-07-27T18:45:34.478Z,24.24
2022-07-27T18:49:32.102Z,23.61
2022-07-27T18:53:29.265Z,23.43
2022-07-27T18:57:26.635Z,23.42
2022-07-27T19:01:23.838Z,23.09
2022-07-27T19:05:40.375Z,22.69
2022-07-27T19:09:38.737Z,22.70
2022-07-27T19:13:35.764Z,22.28
2022-07-27T19:17:33.212Z,22.27
2022-07-27T19:21:30.909Z,22.17
2022-07-27T19:25:30.425Z,22.02
2022-07-27T19:29:27.443Z,21.79
2022-07-27T19:33:24.481Z,21.56
2022-07-27T19:37:21.475Z,21.21
2022-07-27T19:41:19.047Z,21.12
2022-07-27T19:45:16.017Z,21.07
2022-07-27T19:49:13.565Z,21.05
2022-07-27T19:53:11.085Z,20.83
2022-07-27T19:57:08.078Z,20.72
2022-07-27T20:01:09.597Z,20.60
2022-07-27T20:05:08.069Z,20.36
2022-07-27T20:09:05.801Z,20.24
2022-07-27T20:13:03.148Z,20.18
2022-07-27T20:17:01.758Z,20.17
2022-07-27T20:20:58.838Z,20.03
2022-07-27T20:24:57.842Z,19.68
2022-07-27T20:28:55.777Z,19.81
2022-07-27T20:32:52.794Z,19.62
2022-07-27T20:36:50.186Z,19.62
2022-07-27T20:40:47.349Z,19.44
2022-07-27T20:44:44.374Z,19.59
2022-07-27T20:48:42.122Z,19.32
2022-07-27T20:52:41.087Z,19.36
2022-07-27T20:56:38.090Z,19.22
2022-07-27T21:00:35.280Z,19.23
2022-07-27T21:04:32.307Z,19.07
2022-07-27T21:08:29.293Z,19.02
2022-07-27T21:12:26.293Z,19.27
2022-07-27T21:16:23.342Z,19.11
2022-07-27T21:20:20.613Z,19.10
2022-07-27T21:24:18.896Z,18.87
2022-07-27T21:28:18.522Z,18.85
2022-07-27T21:32:20.133Z,18.79
2022-07-27T21:36:17.108Z,19.12
2022-07-27T21:40:14.322Z,19.08
2022-07-27T21:44:11.700Z,18.77
2022-07-27T21:48:09.050Z,18.57
2022-07-27T21:52:07.657Z,18.29
2022-07-27T21:56:05.853Z,18.21
2022-07-27T22:00:06.310Z,18.19
2022-07-27T22:04:03.409Z,17.97
2022-07-27T22:08:00.967Z,18.05
2022-07-27T22:11:58.100Z,17.89
2022-07-27T22:15:55.129Z,17.80
2022-07-27T22:19:52.503Z,17.51
2022-07-27T22:23:49.690Z,17.49
2022-07-27T22:27:46.779Z,17.81
2022-07-27T22:31:43.827Z,17.03
2022-07-27T22:35:40.820Z,17.48
2022-07-27T22:39:38.522Z,17.56
2022-07-27T22:43:36.329Z,17.39
2022-07-27T22:47:33.435Z,17.26
2022-07-27T22:51:48.895Z,17.05
2022-07-27T22:55:47.529Z,17.18
2022-07-27T22:59:44.569Z,16.86
2022-07-27T23:03:41.547Z,16.93
2022-07-27T23:07:38.539Z,17.07
2022-07-27T23:11:35.631Z,16.84
2022-07-27T23:15:32.760Z,16.94
2022-07-27T23:19:29.762Z,16.84
2022-07-27T23:23:27.691Z,16.79
2022-07-27T23:27:24.807Z,16.78
2022-07-27T23:31:22.897Z,16.72
2022-07-27T23:35:20.277Z,16.49
2022-07-27T23:39:17.300Z,16.47
2022-07-27T23:43:14.334Z,16.60
2022-07-27T23:47:13.177Z,16.53
2022-07-27T23:51:19.622Z,16.45
2022-07-27T23:55:16.794Z,16.52
2022-07-27T23:59:14.103Z,16.48
